createdAt,value
2019-04-14T00:01:32.610Z,13.27
2019-04-14T00:04:22.484Z,12.83
2019-04-14T00:06:52.606Z,12.47
2019-04-14T00:09:22.869Z,12.60
2019-04-14T00:11:52.824Z,12.30
2019-04-14T00:14:22.923Z,12.93
2019-04-14T00:16:53.204Z,12.93
2019-04-14T00:19:23.863Z,12.73
2019-04-14T00:21:54.408Z,12.97
2019-04-14T00:24:24.909Z,12.83
2019-04-14T00:26:55.209Z,12.90
2019-04-14T00:29:26.253Z,12.83
2019-04-14T00:31:56.985Z,13.00
2019-04-14T00:34:36.112Z,14.17
2019-04-14T00:37:16.251Z,13.67
2019-04-14T00:39:51.131Z,13.47
2019-04-14T00:42:51.975Z,12.87
2019-04-14T00:45:39.380Z,13.27
2019-04-14T00:48:09.613Z,14.33
2019-04-14T00:50:36.612Z,13.93
2019-04-14T00:53:07.649Z,13.73
2019-04-14T00:55:37.960Z,13.97
2019-04-14T00:58:08.135Z,14.33
2019-04-14T01:00:38.674Z,13.90
2019-04-14T01:03:09.135Z,15.13
2019-04-14T01:05:39.353Z,14.03
2019-04-14T01:08:09.645Z,14.03
2019-04-14T01:10:39.488Z,13.20
2019-04-14T01:13:11.137Z,13.47
2019-04-14T01:15:51.298Z,13.37
2019-04-14T01:18:12.549Z,13.57
2019-04-14T01:20:47.093Z,14.87
2019-04-14T01:23:17.160Z,13.87
2019-04-14T01:25:47.689Z,14.03
2019-04-14T01:28:17.929Z,14.03
2019-04-14T01:31:07.646Z,14.33
2019-04-14T01:33:37.932Z,13.23
2019-04-14T01:36:08.104Z,13.40
2019-04-14T01:38:38.508Z,13.80
2019-04-14T01:41:08.537Z,13.10
2019-04-14T01:43:38.577Z,13.73
2019-04-14T01:46:15.795Z,13.13
2019-04-14T01:48:41.013Z,13.87
2019-04-14T01:51:35.556Z,13.80
2019-04-14T01:54:40.979Z,14.53
2019-04-14T01:57:30.734Z,14.80
2019-04-14T02:00:20.638Z,15.23
2019-04-14T02:02:50.958Z,15.27
2019-04-14T02:05:21.413Z,15.73
2019-04-14T02:07:51.618Z,15.80
2019-04-14T02:10:21.696Z,15.00
2019-04-14T02:12:51.804Z,21.20
2019-04-14T02:15:22.287Z,16.43
2019-04-14T02:17:52.445Z,15.13
2019-04-14T02:20:22.951Z,14.47
2019-04-14T02:22:53.179Z,15.37
2019-04-14T02:25:23.126Z,15.40
2019-04-14T02:27:53.668Z,15.40
2019-04-14T02:30:28.425Z,14.87
2019-04-14T02:33:26.615Z,15.60
2019-04-14T02:35:59.712Z,14.50
2019-04-14T02:43:29.967Z,15.20
2019-04-14T02:45:57.820Z,16.33
2019-04-14T02:51:05.774Z,15.40
2019-04-14T02:53:45.938Z,16.00
2019-04-14T02:56:11.931Z,15.03
2019-04-14T02:58:48.389Z,15.57
2019-04-14T03:03:39.203Z,15.20
2019-04-14T03:06:10.303Z,15.97
2019-04-14T03:08:48.553Z,16.00
2019-04-14T03:11:09.602Z,15.17
2019-04-14T03:13:45.881Z,15.97
2019-04-14T03:19:14.360Z,15.13
2019-04-14T03:22:12.319Z,15.27
2019-04-14T03:24:46.609Z,14.73
2019-04-14T03:27:48.117Z,15.93
2019-04-14T03:30:45.820Z,15.63
2019-04-14T03:33:20.419Z,16.23
2019-04-14T03:35:51.028Z,15.83
2019-04-14T03:38:14.628Z,15.00
2019-04-14T03:40:28.458Z,16.67
2019-04-14T03:43:04.012Z,15.60
2019-04-14T03:45:37.794Z,16.23
2019-04-14T03:53:22.041Z,15.63
2019-04-14T03:55:27.352Z,16.73
2019-04-14T03:57:43.371Z,15.83
2019-04-14T04:00:13.880Z,16.37
2019-04-14T04:02:44.447Z,16.63
2019-04-14T04:05:15.165Z,15.37
2019-04-14T04:07:45.384Z,15.57
2019-04-14T04:10:18.359Z,16.20
2019-04-14T04:12:48.693Z,15.50
2019-04-14T04:15:19.257Z,15.00
2019-04-14T04:18:00.434Z,15.00
2019-04-14T04:20:47.710Z,14.97
2019-04-14T04:23:33.483Z,14.60
2019-04-14T04:26:40.736Z,15.10
2019-04-14T04:29:20.193Z,14.17
2019-04-14T04:32:03.552Z,14.67
2019-04-14T04:34:53.347Z,14.27
2019-04-14T04:37:34.412Z,14.70
2019-04-14T04:40:09.386Z,14.03
2019-04-14T04:42:39.481Z,14.20
2019-04-14T04:45:10.390Z,14.40
2019-04-14T04:47:40.515Z,15.00
2019-04-14T04:50:10.775Z,14.23
2019-04-14T04:52:40.766Z,14.30
2019-04-14T04:55:11.254Z,14.00
2019-04-14T04:57:41.603Z,13.73
2019-04-14T05:00:11.901Z,14.07
2019-04-14T05:02:41.871Z,12.63
2019-04-14T05:05:47.216Z,12.70
2019-04-14T05:08:17.400Z,12.50
2019-04-14T05:10:55.200Z,12.23
2019-04-14T05:13:44.615Z,12.57
2019-04-14T05:16:14.930Z,13.17
2019-04-14T05:18:44.713Z,13.10
2019-04-14T05:21:14.905Z,13.33
2019-04-14T05:23:45.352Z,13.53
2019-04-14T05:26:15.556Z,13.97
2019-04-14T05:28:46.031Z,12.93
2019-04-14T05:31:16.466Z,13.60
2019-04-14T05:33:46.872Z,12.93
2019-04-14T05:36:17.084Z,13.43
2019-04-14T05:38:47.409Z,12.63
2019-04-14T05:41:17.998Z,12.70
2019-04-14T05:43:53.765Z,12.93
2019-04-14T05:46:20.611Z,13.40
2019-04-14T05:48:51.456Z,12.73
2019-04-14T05:51:23.160Z,12.83
2019-04-14T05:53:52.803Z,12.70
2019-04-14T05:56:23.127Z,13.13
2019-04-14T05:58:53.618Z,12.80
2019-04-14T06:01:24.735Z,12.83
2019-04-14T06:03:54.552Z,12.60
2019-04-14T06:06:24.404Z,13.80
2019-04-14T06:08:54.224Z,13.57
2019-04-14T06:11:24.054Z,13.97
2019-04-14T06:13:53.926Z,14.00
2019-04-14T06:16:23.722Z,14.23
2019-04-14T06:18:53.558Z,13.57
2019-04-14T06:21:23.349Z,13.13
2019-04-14T06:23:53.298Z,13.67
2019-04-14T06:26:23.155Z,14.07
2019-04-14T06:28:53.464Z,13.87
2019-04-14T06:31:39.659Z,14.10
2019-04-14T06:34:13.821Z,13.10
2019-04-14T06:36:58.715Z,13.07
2019-04-14T06:39:30.947Z,13.93
2019-04-14T06:42:01.049Z,13.63
2019-04-14T06:44:30.818Z,13.37
2019-04-14T06:47:00.754Z,12.83
2019-04-14T06:49:30.588Z,11.53
2019-04-14T06:52:00.418Z,12.50
2019-04-14T06:54:30.193Z,11.67
2019-04-14T06:57:00.077Z,11.33
2019-04-14T06:59:29.817Z,11.13
2019-04-14T07:02:01.937Z,11.67
2019-04-14T07:04:31.154Z,11.10
2019-04-14T07:07:01.025Z,11.57
2019-04-14T07:09:30.763Z,10.93
2019-04-14T07:12:00.714Z,10.27
2019-04-14T07:14:31.987Z,10.87
2019-04-14T07:17:01.861Z,9.93
2019-04-14T07:19:31.614Z,9.97
2019-04-14T07:22:01.330Z,9.93
2019-04-14T07:24:31.153Z,10.87
2019-04-14T07:27:00.975Z,10.40
2019-04-14T07:29:37.224Z,10.40
2019-04-14T07:32:16.188Z,10.03
2019-04-14T07:35:10.647Z,11.27
2019-04-14T07:37:49.034Z,10.93
2019-04-14T07:40:43.505Z,10.00
2019-04-14T07:43:22.786Z,10.67
2019-04-14T07:46:02.127Z,10.53
2019-04-14T07:48:36.394Z,10.57
2019-04-14T07:51:29.193Z,10.17
2019-04-14T07:54:09.870Z,10.43
2019-04-14T07:57:10.851Z,10.47
2019-04-14T07:59:52.691Z,10.10
2019-04-14T08:02:27.672Z,10.80
2019-04-14T08:05:04.167Z,10.83
2019-04-14T08:07:34.123Z,10.80
2019-04-14T08:10:03.986Z,10.40
2019-04-14T08:12:35.230Z,9.73
2019-04-14T08:15:05.619Z,10.63
2019-04-14T08:17:35.581Z,10.37
2019-04-14T08:20:06.151Z,9.73
2019-04-14T08:22:35.959Z,9.20
2019-04-14T08:25:05.971Z,9.17
2019-04-14T08:27:35.788Z,9.67
2019-04-14T08:30:07.088Z,8.50
2019-04-14T08:32:36.894Z,9.03
2019-04-14T08:35:06.811Z,9.50
2019-04-14T08:37:36.679Z,8.53
2019-04-14T08:40:06.691Z,8.77
2019-04-14T08:43:02.658Z,8.47
2019-04-14T08:45:47.911Z,7.93
2019-04-14T08:48:36.610Z,8.70
2019-04-14T08:51:27.965Z,8.83
2019-04-14T08:54:11.020Z,9.00
2019-04-14T08:56:53.126Z,8.70
2019-04-14T08:59:40.787Z,9.07
2019-04-14T09:02:41.402Z,8.60
2019-04-14T09:05:48.367Z,9.33
2019-04-14T09:08:25.092Z,8.73
2019-04-14T09:10:58.089Z,8.60
2019-04-14T09:13:27.991Z,8.67
2019-04-14T09:15:57.761Z,8.43
2019-04-14T09:18:27.569Z,9.17
2019-04-14T09:20:57.346Z,8.53
2019-04-14T09:23:27.090Z,9.20
2019-04-14T09:25:56.924Z,8.90
2019-04-14T09:28:26.694Z,8.87
2019-04-14T09:30:56.490Z,9.23
2019-04-14T09:33:26.322Z,8.33
2019-04-14T09:35:56.167Z,8.00
2019-04-14T09:38:25.934Z,7.60
2019-04-14T09:40:55.802Z,7.57
2019-04-14T09:43:25.670Z,8.27
2019-04-14T09:45:55.486Z,7.97
2019-04-14T09:48:25.302Z,7.37
2019-04-14T09:51:04.197Z,7.37
2019-04-14T09:53:26.499Z,6.93
2019-04-14T09:55:56.344Z,7.80
2019-04-14T09:58:26.137Z,7.90
2019-04-14T10:00:55.924Z,8.20
2019-04-14T10:03:25.747Z,8.10
2019-04-14T10:05:58.011Z,7.40
2019-04-14T10:11:06.803Z,7.97
2019-04-14T10:13:36.574Z,7.50
2019-04-14T10:16:06.322Z,8.23
2019-04-14T10:18:36.161Z,7.97
2019-04-14T10:21:16.678Z,7.80
2019-04-14T10:23:39.500Z,7.67
2019-04-14T10:26:09.066Z,8.30
2019-04-14T10:28:38.902Z,7.53
2019-04-14T10:31:08.642Z,7.00
2019-04-14T10:33:38.373Z,7.90
2019-04-14T10:36:08.205Z,7.80
2019-04-14T10:38:38.104Z,8.30
2019-04-14T10:41:07.807Z,7.87
2019-04-14T10:43:37.665Z,7.93
2019-04-14T10:46:07.395Z,8.17
2019-04-14T10:48:37.254Z,7.83
2019-04-14T10:51:07.050Z,8.00
2019-04-14T10:53:36.879Z,8.17
2019-04-14T10:56:06.754Z,8.10
2019-04-14T10:58:36.630Z,8.37
2019-04-14T11:01:06.568Z,8.43
2019-04-14T11:03:36.854Z,8.67
2019-04-14T11:06:28.607Z,8.33
2019-04-14T11:08:58.547Z,8.07
2019-04-14T11:11:28.313Z,8.00
2019-04-14T11:13:58.256Z,8.70
2019-04-14T11:16:28.102Z,8.07
2019-04-14T11:18:57.838Z,8.57
2019-04-14T11:21:27.684Z,8.47
2019-04-14T11:23:57.446Z,7.93
2019-04-14T11:26:27.247Z,8.93
2019-04-14T11:28:57.067Z,8.90
2019-04-14T11:31:44.247Z,8.97
2019-04-14T11:34:14.955Z,8.57
2019-04-14T11:36:58.407Z,8.80
2019-04-14T11:39:28.225Z,8.73
2019-04-14T11:41:59.593Z,9.60
2019-04-14T11:44:29.985Z,8.63
2019-04-14T11:47:01.000Z,9.23
2019-04-14T11:49:31.138Z,9.10
2019-04-14T11:52:00.892Z,8.17
2019-04-14T11:54:30.945Z,8.30
2019-04-14T11:57:02.193Z,8.47
2019-04-14T11:59:50.991Z,8.70
2019-04-14T12:02:28.153Z,8.37
2019-04-14T12:05:04.396Z,9.57
2019-04-14T12:07:52.965Z,8.97
2019-04-14T12:10:28.890Z,9.40
2019-04-14T12:12:59.292Z,9.67
2019-04-14T12:15:30.720Z,9.13
2019-04-14T12:18:02.320Z,10.27
2019-04-14T12:20:35.474Z,9.60
2019-04-14T12:23:06.251Z,10.00
2019-04-14T12:25:36.095Z,9.60
2019-04-14T12:28:09.501Z,9.80
2019-04-14T12:30:39.924Z,9.40
2019-04-14T12:33:10.186Z,8.83
2019-04-14T12:35:42.892Z,8.83
2019-04-14T12:38:14.381Z,8.60
2019-04-14T12:40:44.588Z,8.63
2019-04-14T12:43:33.940Z,7.83
2019-04-14T12:46:24.706Z,8.27
2019-04-14T12:49:01.931Z,9.03
2019-04-14T12:51:41.659Z,8.00
2019-04-14T12:54:13.955Z,8.30
2019-04-14T12:56:43.931Z,8.87
2019-04-14T12:59:22.868Z,8.30
2019-04-14T13:02:13.043Z,8.93
2019-04-14T13:04:42.822Z,8.60
2019-04-14T13:07:12.661Z,7.27
2019-04-14T13:09:42.499Z,7.50
2019-04-14T13:12:12.211Z,7.67
2019-04-14T13:14:42.050Z,7.93
2019-04-14T13:17:11.791Z,6.80
2019-04-14T13:19:41.609Z,7.63
2019-04-14T13:22:11.384Z,6.83
2019-04-14T13:24:41.099Z,6.50
2019-04-14T13:27:10.913Z,7.00
2019-04-14T13:29:40.773Z,7.10
2019-04-14T13:32:10.566Z,7.27
2019-04-14T13:34:40.397Z,7.10
2019-04-14T13:37:10.274Z,6.77
2019-04-14T13:39:40.055Z,5.80
2019-04-14T13:42:09.887Z,6.20
2019-04-14T13:44:39.694Z,6.13
2019-04-14T13:47:09.451Z,6.07
2019-04-14T13:49:39.252Z,6.10
2019-04-14T13:52:09.159Z,6.47
2019-04-14T13:54:38.960Z,6.33
2019-04-14T13:57:08.849Z,6.80
2019-04-14T13:59:38.540Z,6.50
2019-04-14T14:02:08.395Z,7.40
2019-04-14T14:04:38.203Z,6.40
2019-04-14T14:07:08.263Z,5.70
2019-04-14T14:09:38.091Z,7.03
2019-04-14T14:12:25.358Z,5.93
2019-04-14T14:15:19.966Z,5.80
2019-04-14T14:18:17.732Z,6.10
2019-04-14T14:21:09.163Z,6.17
2019-04-14T14:23:56.279Z,6.50
2019-04-14T14:26:27.453Z,6.17
2019-04-14T14:28:57.315Z,6.23
2019-04-14T14:31:27.080Z,6.10
2019-04-14T14:33:56.982Z,5.40
2019-04-14T14:36:26.825Z,5.30
2019-04-14T14:38:56.673Z,5.17
2019-04-14T14:41:26.447Z,5.10
2019-04-14T14:43:56.307Z,5.03
2019-04-14T14:47:00.157Z,5.23
2019-04-14T14:49:47.603Z,4.77
2019-04-14T14:52:19.162Z,4.60
2019-04-14T14:54:48.971Z,4.70
2019-04-14T14:57:18.806Z,4.63
2019-04-14T14:59:48.587Z,4.30
2019-04-14T15:02:18.574Z,4.27
2019-04-14T15:04:48.408Z,4.47
2019-04-14T15:07:18.270Z,4.20
2019-04-14T15:09:48.212Z,3.80
2019-04-14T15:12:17.957Z,3.80
2019-04-14T15:14:47.791Z,4.13
2019-04-14T15:17:17.776Z,3.90
2019-04-14T15:19:47.685Z,3.97
2019-04-14T15:22:17.472Z,4.17
2019-04-14T15:24:47.379Z,4.57
2019-04-14T15:27:17.118Z,4.60
2019-04-14T15:29:46.925Z,4.83
2019-04-14T15:32:16.701Z,4.57
2019-04-14T15:34:46.492Z,4.20
2019-04-14T15:37:16.348Z,3.87
2019-04-14T15:39:46.166Z,3.80
2019-04-14T15:42:15.942Z,3.50
2019-04-14T15:44:45.662Z,3.83
2019-04-14T15:47:15.532Z,4.50
2019-04-14T15:49:45.358Z,4.20
2019-04-14T15:52:15.174Z,6.60
2019-04-14T15:54:44.942Z,3.97
2019-04-14T15:57:48.541Z,4.00
2019-04-14T16:00:42.875Z,3.90
2019-04-14T16:03:29.272Z,4.57
2019-04-14T16:06:16.596Z,4.43
2019-04-14T16:09:20.203Z,3.50
2019-04-14T16:12:21.191Z,3.30
2019-04-14T16:15:21.743Z,3.07
2019-04-14T16:18:19.491Z,2.90
2019-04-14T16:20:50.188Z,3.10
2019-04-14T16:23:20.070Z,3.00
2019-04-14T16:26:07.457Z,2.77
2019-04-14T16:28:42.945Z,3.20
2019-04-14T16:31:30.550Z,2.67
2019-04-14T16:34:21.654Z,2.80
2019-04-14T16:36:52.075Z,2.73
2019-04-14T16:39:21.926Z,2.83
2019-04-14T16:41:52.231Z,2.47
2019-04-14T16:44:22.075Z,2.93
2019-04-14T16:46:51.768Z,2.63
2019-04-14T16:49:21.578Z,2.90
2019-04-14T16:51:55.194Z,3.10
2019-04-14T16:54:37.101Z,3.00
2019-04-14T16:57:24.263Z,3.30
2019-04-14T16:59:54.172Z,3.30
2019-04-14T17:02:24.065Z,3.30
2019-04-14T17:04:53.874Z,3.03
2019-04-14T17:07:23.658Z,3.03
2019-04-14T17:09:53.506Z,3.10
2019-04-14T17:12:23.307Z,3.30
2019-04-14T17:15:14.846Z,3.40
2019-04-14T17:18:09.351Z,3.00
2019-04-14T17:20:58.021Z,3.27
2019-04-14T17:23:40.979Z,3.43
2019-04-14T17:26:16.757Z,2.77
2019-04-14T17:28:57.223Z,3.43
2019-04-14T17:31:49.102Z,3.20
2019-04-14T17:34:37.747Z,3.47
2019-04-14T17:37:38.505Z,3.10
2019-04-14T17:40:25.455Z,3.40
2019-04-14T17:43:03.449Z,3.63
2019-04-14T17:45:38.313Z,4.10
2019-04-14T17:48:25.436Z,4.20
2019-04-14T17:51:03.414Z,4.60
2019-04-14T17:54:01.568Z,4.30
2019-04-14T17:56:40.617Z,3.40
2019-04-14T17:59:25.722Z,3.40
2019-04-14T18:02:23.444Z,3.47
2019-04-14T18:05:20.953Z,3.80
2019-04-14T18:08:05.362Z,3.90
2019-04-14T18:10:44.208Z,3.90
2019-04-14T18:13:17.407Z,3.60
2019-04-14T18:15:59.002Z,3.63
2019-04-14T18:18:48.243Z,3.70
2019-04-14T18:21:18.516Z,3.93
2019-04-14T18:23:48.368Z,3.33
2019-04-14T18:26:18.550Z,3.37
2019-04-14T18:28:59.602Z,3.70
2019-04-14T18:31:50.040Z,4.63
2019-04-14T18:34:41.482Z,4.57
2019-04-14T18:37:28.934Z,3.93
2019-04-14T18:40:15.928Z,4.30
2019-04-14T18:43:10.408Z,4.60
2019-04-14T18:45:59.020Z,4.20
2019-04-14T18:48:35.267Z,4.40
2019-04-14T18:51:10.209Z,4.50
2019-04-14T18:53:54.214Z,4.30
2019-04-14T18:56:42.033Z,4.13
2019-04-14T18:59:35.530Z,3.80
2019-04-14T19:02:05.273Z,3.37
2019-04-14T19:04:35.103Z,2.83
2019-04-14T19:07:04.892Z,3.20
2019-04-14T19:09:35.083Z,2.60
2019-04-14T19:12:23.826Z,3.03
2019-04-14T19:14:59.879Z,6.87
2019-04-14T19:17:48.542Z,4.50
2019-04-14T19:20:19.631Z,2.83
2019-04-14T19:22:49.401Z,2.83
2019-04-14T19:25:19.273Z,2.67
2019-04-14T19:27:49.131Z,2.70
2019-04-14T19:30:19.108Z,2.43
2019-04-14T19:32:48.870Z,2.83
2019-04-14T19:35:18.727Z,2.87
2019-04-14T19:37:48.512Z,2.83
2019-04-14T19:40:18.692Z,2.93
2019-04-14T19:42:48.652Z,2.63
2019-04-14T19:45:18.547Z,2.50
2019-04-14T19:47:48.377Z,2.80
2019-04-14T19:50:18.222Z,2.70
2019-04-14T19:52:49.572Z,2.60
2019-04-14T19:55:20.499Z,2.40
2019-04-14T19:57:50.707Z,2.13
2019-04-14T20:00:20.691Z,2.30
2019-04-14T20:02:50.419Z,2.30
2019-04-14T20:05:20.280Z,2.47
2019-04-14T20:07:50.213Z,2.60
2019-04-14T20:10:20.405Z,2.20
2019-04-14T20:12:50.388Z,2.30
2019-04-14T20:15:25.961Z,2.40
2019-04-14T20:18:12.828Z,2.50
2019-04-14T20:21:01.447Z,2.50
2019-04-14T20:23:51.810Z,2.40
2019-04-14T20:26:39.104Z,2.30
2019-04-14T20:29:14.519Z,2.57
2019-04-14T20:31:53.446Z,2.30
2019-04-14T20:34:23.328Z,2.30
2019-04-14T20:36:53.170Z,2.20
2019-04-14T20:39:23.341Z,2.73
2019-04-14T20:41:53.215Z,2.50
2019-04-14T20:44:23.073Z,2.20
2019-04-14T20:46:53.145Z,2.47
2019-04-14T20:49:22.956Z,2.20
2019-04-14T20:51:53.138Z,2.30
2019-04-14T20:54:23.182Z,2.10
2019-04-14T20:56:52.963Z,2.30
2019-04-14T20:59:22.802Z,2.33
2019-04-14T21:02:11.104Z,2.80
2019-04-14T21:05:11.755Z,2.60
2019-04-14T21:08:03.039Z,2.63
2019-04-14T21:10:38.946Z,2.50
2019-04-14T21:13:22.259Z,2.40
2019-04-14T21:16:12.187Z,2.40
2019-04-14T21:18:53.316Z,2.47
2019-04-14T21:21:41.936Z,2.30
2019-04-14T21:24:36.317Z,2.37
2019-04-14T21:27:20.240Z,2.37
2019-04-14T21:30:26.869Z,2.20
2019-04-14T21:33:18.145Z,2.40
2019-04-14T21:35:55.039Z,2.60
2019-04-14T21:38:43.707Z,2.47
2019-04-14T21:41:22.195Z,2.57
2019-04-14T21:43:52.074Z,2.40
2019-04-14T21:46:21.912Z,2.57
2019-04-14T21:48:51.750Z,2.67
2019-04-14T21:51:23.335Z,2.70
2019-04-14T21:53:53.263Z,2.77
2019-04-14T21:56:24.576Z,2.63
2019-04-14T21:59:00.340Z,2.70
2019-04-14T22:02:16.436Z,2.87
2019-04-14T22:05:01.001Z,3.33
2019-04-14T22:07:56.228Z,3.07
2019-04-14T22:10:44.917Z,2.87
2019-04-14T22:13:14.802Z,3.20
2019-04-14T22:15:44.601Z,2.97
2019-04-14T22:18:14.768Z,2.93
2019-04-14T22:20:44.706Z,3.33
2019-04-14T22:23:14.508Z,3.10
2019-04-14T22:25:44.319Z,3.07
2019-04-14T22:28:14.037Z,2.70
2019-04-14T22:30:44.286Z,3.20
2019-04-14T22:33:14.071Z,3.40
2019-04-14T22:35:43.944Z,3.20
2019-04-14T22:38:13.792Z,3.37
2019-04-14T22:40:43.650Z,2.87
2019-04-14T22:43:13.486Z,3.13
2019-04-14T22:45:43.232Z,3.17
2019-04-14T22:48:13.101Z,3.67
2019-04-14T22:50:42.963Z,3.07
2019-04-14T22:53:12.737Z,3.30
2019-04-14T22:55:42.544Z,3.80
2019-04-14T22:58:12.376Z,3.30
2019-04-14T23:00:51.996Z,3.20
2019-04-14T23:06:59.152Z,2.70
2019-04-14T23:09:43.490Z,3.20
2019-04-14T23:12:35.212Z,2.90
2019-04-14T23:15:27.460Z,3.37
2019-04-14T23:18:12.104Z,3.27
2019-04-14T23:21:03.584Z,3.27
2019-04-14T23:23:49.227Z,3.13
2019-04-14T23:26:19.092Z,3.60
2019-04-14T23:28:48.961Z,3.60
2019-04-14T23:31:18.811Z,3.30
2019-04-14T23:33:48.714Z,3.30
2019-04-14T23:36:18.631Z,2.83
2019-04-14T23:38:48.488Z,3.27
2019-04-14T23:41:18.254Z,3.83
2019-04-14T23:43:48.099Z,3.27
2019-04-14T23:46:17.850Z,3.33
2019-04-14T23:48:47.772Z,3.67
2019-04-14T23:51:17.608Z,3.27
2019-04-14T23:53:47.377Z,3.13
2019-04-14T23:56:17.345Z,3.20
2019-04-14T23:58:47.142Z,3.83
